Time;durP1;ratioP1;P1;durP2;ratioP2;P2;SDS_P1;SDS_P2;PMS_P1;PMS_P2;Temp;Humidity;BMP_temperature;BMP_pressure;BME280_temperature;BME280_humidity;BME280_pressure;Samples;Min_cycle;Max_cycle;Signal;HPM_P1;HPM_P2
2021/01/31 00:02:13;;;;;;;0.00;0.00;;;-1.10;99.90;;;;;;5052574;28;20197;-68
2021/01/31 00:04:44;;;;;;;0.00;0.00;;;-1.10;99.90;;;;;;5052266;28;20225;-68
2021/01/31 00:07:10;;;;;;;0.00;0.00;;;-1.10;99.90;;;;;;5052912;28;20196;-68
2021/01/31 00:09:37;;;;;;;0.00;0.00;;;-1.10;99.90;;;;;;5052444;28;20211;-68
2021/01/31 00:12:04;;;;;;;0.00;0.00;;;-1.10;99.90;;;;;;5052743;28;20196;-68
2021/01/31 00:14:30;;;;;;;0.00;0.00;;;-1.10;99.90;;;;;;5052509;28;20197;-68
2021/01/31 00:16:56;;;;;;;0.00;0.00;;;-1.10;99.90;;;;;;5052439;28;20266;-68
2021/01/31 00:19:23;;;;;;;0.00;0.00;;;-1.20;99.90;;;;;;5052330;28;20205;-68
2021/01/31 00:21:49;;;;;;;0.00;0.00;;;-1.20;99.90;;;;;;5052684;28;20288;-68
2021/01/31 00:24:15;;;;;;;0.00;0.00;;;-1.20;99.90;;;;;;5052466;28;20201;-68
2021/01/31 00:26:42;;;;;;;0.00;0.00;;;-1.10;99.90;;;;;;5052172;28;20622;-68
2021/01/31 00:29:08;;;;;;;0.00;0.00;;;-1.20;99.90;;;;;;5051893;28;20568;-68
2021/01/31 00:31:34;;;;;;;0.00;0.00;;;-1.20;99.90;;;;;;5052059;28;20200;-67
2021/01/31 00:34:01;;;;;;;0.00;0.00;;;-1.20;99.90;;;;;;5052109;28;20197;-67
2021/01/31 00:36:27;;;;;;;0.00;0.00;;;-1.20;99.90;;;;;;5052167;28;20330;-68
2021/01/31 00:38:53;;;;;;;0.00;0.00;;;-1.20;99.90;;;;;;5053368;28;20201;-68
2021/01/31 00:41:19;;;;;;;0.00;0.00;;;-1.20;99.90;;;;;;5057002;28;20193;-68
2021/01/31 00:43:46;;;;;;;0.00;0.00;;;-1.20;99.90;;;;;;5053885;28;20257;-69
2021/01/31 00:46:12;;;;;;;0.00;0.00;;;-1.30;99.90;;;;;;5053142;28;20282;-68
2021/01/31 00:48:38;;;;;;;0.00;0.00;;;-1.30;99.90;;;;;;5053360;28;20208;-69
2021/01/31 00:51:04;;;;;;;0.00;0.00;;;-1.30;99.90;;;;;;5055930;28;20653;-68
2021/01/31 00:53:30;;;;;;;0.00;0.00;;;-1.30;99.90;;;;;;5056351;28;20250;-68
2021/01/31 00:55:57;;;;;;;0.00;0.00;;;-1.30;99.90;;;;;;5055627;28;20228;-68
2021/01/31 00:58:23;;;;;;;0.00;0.00;;;-1.30;99.90;;;;;;5053499;28;20224;-69
2021/01/31 01:00:50;;;;;;;0.00;0.00;;;-1.30;99.90;;;;;;5052062;28;20204;-69
2021/01/31 01:03:16;;;;;;;0.00;0.00;;;-1.40;99.90;;;;;;5051979;28;20232;-69
2021/01/31 01:05:42;;;;;;;0.00;0.00;;;-1.40;99.90;;;;;;5052236;28;20657;-68
2021/01/31 01:08:08;;;;;;;0.00;0.00;;;-1.40;99.90;;;;;;5051728;28;20193;-68
2021/01/31 01:10:36;;;;;;;0.00;0.00;;;-1.40;99.90;;;;;;5051711;28;20197;-67
2021/01/31 01:13:04;;;;;;;0.00;0.00;;;-1.40;99.90;;;;;;5051739;28;20205;-68
2021/01/31 01:15:31;;;;;;;0.00;0.00;;;-1.40;99.90;;;;;;5051487;28;20666;-68
2021/01/31 01:17:58;;;;;;;0.00;0.00;;;-1.40;99.90;;;;;;5051475;28;20220;-68
2021/01/31 01:20:25;;;;;;;0.00;0.00;;;-1.40;99.90;;;;;;5051675;28;20224;-67
2021/01/31 01:22:51;;;;;;;0.00;0.00;;;-1.40;99.90;;;;;;5051207;28;20205;-67
2021/01/31 01:25:20;;;;;;;0.00;0.00;;;-1.40;99.90;;;;;;5051582;28;20221;-68
2021/01/31 01:27:46;;;;;;;0.00;0.00;;;-1.50;99.90;;;;;;5051942;28;20198;-68
2021/01/31 01:30:17;;;;;;;0.00;0.00;;;-1.50;99.90;;;;;;5050897;28;20245;-67
2021/01/31 01:32:43;;;;;;;0.00;0.00;;;-1.50;99.90;;;;;;5051484;28;20196;-67
2021/01/31 01:35:11;;;;;;;0.00;0.00;;;-1.50;99.90;;;;;;5051522;28;20221;-68
2021/01/31 01:37:38;;;;;;;0.00;0.00;;;-1.50;99.90;;;;;;5051426;28;20262;-68
2021/01/31 01:40:06;;;;;;;0.00;0.00;;;-1.50;99.90;;;;;;5051359;28;20218;-68
2021/01/31 01:42:32;;;;;;;0.00;0.00;;;-1.50;99.90;;;;;;5054789;28;20239;-68
2021/01/31 01:44:58;;;;;;;0.00;0.00;;;-1.50;99.90;;;;;;5055061;28;20213;-68
2021/01/31 01:47:28;;;;;;;0.00;0.00;;;-1.50;99.90;;;;;;5055583;28;20196;-68
2021/01/31 01:49:56;;;;;;;0.00;0.00;;;-1.60;99.90;;;;;;5054925;28;20203;-67
2021/01/31 01:52:25;;;;;;;0.00;0.00;;;-1.60;99.90;;;;;;5055140;28;20201;-68
2021/01/31 01:54:54;;;;;;;0.00;0.00;;;-1.60;99.90;;;;;;5054816;28;20232;-68
2021/01/31 01:57:25;;;;;;;0.00;0.00;;;-1.60;99.90;;;;;;5055279;28;20216;-68
2021/01/31 01:59:54;;;;;;;0.00;0.00;;;-1.60;99.90;;;;;;5055061;28;20192;-68
2021/01/31 02:02:24;;;;;;;0.00;0.00;;;-1.60;99.90;;;;;;5055467;28;20212;-68
2021/01/31 02:04:50;;;;;;;0.00;0.00;;;-1.70;99.90;;;;;;5055292;28;20221;-68
2021/01/31 02:07:18;;;;;;;0.00;0.00;;;-1.70;99.90;;;;;;5055045;28;20197;-67
2021/01/31 02:09:47;;;;;;;0.00;0.00;;;-1.70;99.90;;;;;;5055133;28;20211;-68
2021/01/31 02:12:15;;;;;;;0.00;0.00;;;-1.70;99.90;;;;;;5055099;28;20203;-67
2021/01/31 02:14:44;;;;;;;0.00;0.00;;;-1.80;99.90;;;;;;5055157;28;20220;-68
2021/01/31 02:17:19;;;;;;;0.00;0.00;;;-1.90;99.90;;;;;;5054825;28;20367;-67
2021/01/31 02:20:27;;;;;;;0.00;0.00;;;-1.90;99.90;;;;;;5054528;28;20203;-67
2021/01/31 02:23:11;;;;;;;0.00;0.00;;;-1.90;99.90;;;;;;5054684;28;20196;-68
2021/01/31 02:26:00;;;;;;;0.00;0.00;;;-1.90;99.90;;;;;;5054844;28;20267;-68
2021/01/31 02:28:55;;;;;;;0.00;0.00;;;-2.00;99.90;;;;;;5054655;28;20571;-68
2021/01/31 02:31:35;;;;;;;0.00;0.00;;;-1.90;99.90;;;;;;5054354;28;20204;-68
2021/01/31 02:34:06;;;;;;;0.00;0.00;;;-1.90;99.90;;;;;;5054729;28;20187;-68
2021/01/31 02:36:41;;;;;;;0.00;0.00;;;-2.00;99.90;;;;;;5054260;28;20221;-68
2021/01/31 02:39:16;;;;;;;0.00;0.00;;;-2.00;99.90;;;;;;5054075;28;20208;-68
2021/01/31 02:41:47;;;;;;;0.00;0.00;;;-2.00;99.90;;;;;;5054451;28;20196;-67
2021/01/31 02:44:18;;;;;;;0.00;0.00;;;-2.00;99.90;;;;;;5054064;28;20208;-68
2021/01/31 02:46:48;;;;;;;0.00;0.00;;;-2.10;99.90;;;;;;5054249;28;20200;-67
2021/01/31 02:49:20;;;;;;;0.00;0.00;;;-2.10;99.90;;;;;;5053894;28;20197;-68
2021/01/31 02:51:51;;;;;;;0.00;0.00;;;-2.10;99.90;;;;;;5053947;28;20663;-67
2021/01/31 02:54:22;;;;;;;0.00;0.00;;;-2.20;99.90;;;;;;5054337;28;20200;-68
2021/01/31 02:56:54;;;;;;;0.00;0.00;;;-2.20;99.90;;;;;;5054324;28;20270;-68
2021/01/31 02:59:24;;;;;;;0.00;0.00;;;-2.30;99.90;;;;;;5054021;28;20279;-68
2021/01/31 03:01:57;;;;;;;0.00;0.00;;;-2.30;99.90;;;;;;5054103;28;20203;-68
2021/01/31 03:04:30;;;;;;;0.00;0.00;;;-2.30;99.90;;;;;;5054028;28;20201;-67
2021/01/31 03:07:04;;;;;;;0.00;0.00;;;-2.30;99.90;;;;;;5054027;28;20206;-68
2021/01/31 03:09:35;;;;;;;0.00;0.00;;;-2.20;99.90;;;;;;5053566;28;20188;-67
2021/01/31 03:12:07;;;;;;;0.00;0.00;;;-2.30;99.90;;;;;;5054067;28;20197;-68
2021/01/31 03:14:39;;;;;;;0.00;0.00;;;-2.30;99.90;;;;;;5053367;28;20204;-67
2021/01/31 03:17:11;;;;;;;0.00;0.00;;;-2.30;99.90;;;;;;5053705;28;20250;-68
2021/01/31 03:19:43;;;;;;;0.00;0.00;;;-2.30;99.90;;;;;;5053124;28;20241;-68
2021/01/31 03:22:13;;;;;;;0.00;0.00;;;-2.40;99.90;;;;;;5053858;28;20196;-68
2021/01/31 03:24:42;;;;;;;0.00;0.00;;;-2.40;1.00;;;;;;5053406;28;20223;-68
2021/01/31 03:27:15;;;;;;;0.00;0.00;;;-2.40;1.00;;;;;;5053187;28;20319;-68
2021/01/31 03:29:41;;;;;;;0.00;0.00;;;-2.40;99.90;;;;;;5053427;28;20196;-68
2021/01/31 03:32:11;;;;;;;0.00;0.00;;;-2.50;1.00;;;;;;5053380;28;20218;-67
2021/01/31 03:34:42;;;;;;;0.00;0.00;;;-2.50;1.00;;;;;;5053218;28;20197;-67
2021/01/31 03:37:12;;;;;;;0.00;0.00;;;-2.40;1.00;;;;;;5053244;28;20274;-67
2021/01/31 03:39:40;;;;;;;0.00;0.00;;;-2.50;1.00;;;;;;5053251;28;20213;-68
2021/01/31 03:42:06;;;;;;;0.00;0.00;;;-2.50;1.00;;;;;;5053393;28;20204;-68
2021/01/31 03:44:36;;;;;;;0.00;0.00;;;-2.50;1.00;;;;;;5055402;28;20205;-68
2021/01/31 03:47:09;;;;;;;0.00;0.00;;;-2.60;1.00;;;;;;5053604;28;20200;-68
2021/01/31 03:49:42;;;;;;;0.00;0.00;;;-2.50;1.00;;;;;;5053689;28;20207;-68
2021/01/31 03:52:08;;;;;;;0.00;0.00;;;-2.60;1.00;;;;;;5052805;28;20625;-68
2021/01/31 03:54:35;;;;;;;0.00;0.00;;;-2.60;1.00;;;;;;5053184;28;20227;-68
2021/01/31 03:57:05;;;;;;;0.00;0.00;;;-2.60;1.00;;;;;;5052860;28;20231;-68
2021/01/31 03:59:35;;;;;;;0.00;0.00;;;-2.60;1.00;;;;;;5052503;28;20210;-68
2021/01/31 04:02:03;;;;;;;0.00;0.00;;;-2.50;1.00;;;;;;5052691;28;20264;-68
2021/01/31 04:04:35;;;;;;;0.00;0.00;;;-2.60;1.00;;;;;;5051854;28;20199;-68
2021/01/31 04:07:05;;;;;;;0.00;0.00;;;-2.60;1.00;;;;;;5052911;28;20196;-68
2021/01/31 04:09:34;;;;;;;0.00;0.00;;;-2.60;1.00;;;;;;5052574;28;20182;-68
2021/01/31 04:12:03;;;;;;;0.00;0.00;;;-2.70;1.00;;;;;;5052806;28;20202;-68
2021/01/31 04:14:34;;;;;;;0.00;0.00;;;-2.70;1.00;;;;;;5052478;28;20200;-68
2021/01/31 04:17:01;;;;;;;0.00;0.00;;;-2.70;3.90;;;;;;5052334;28;20872;-68
2021/01/31 04:19:27;;;;;;;0.00;0.00;;;-2.70;17.90;;;;;;5052152;28;20206;-70
2021/01/31 04:21:53;;;;;;;0.00;0.00;;;-2.80;28.20;;;;;;5052612;28;20201;-69
2021/01/31 04:24:20;;;;;;;0.00;0.00;;;-2.70;99.90;;;;;;5052199;28;20221;-69
2021/01/31 04:26:46;;;;;;;0.00;0.00;;;-2.80;99.90;;;;;;5052328;28;20200;-70
2021/01/31 04:29:12;;;;;;;0.00;0.00;;;-2.70;99.90;;;;;;5051975;28;20268;-69
2021/01/31 04:31:38;;;;;;;0.00;0.00;;;-2.70;99.90;;;;;;5051548;28;20207;-69
2021/01/31 04:34:04;;;;;;;0.00;0.00;;;-2.70;99.90;;;;;;5052159;28;20203;-69
2021/01/31 04:36:31;;;;;;;0.00;0.00;;;-2.70;57.10;;;;;;5052234;28;20227;-69
2021/01/31 04:38:57;;;;;;;0.00;0.00;;;-2.80;74.60;;;;;;5052183;28;20203;-69
2021/01/31 04:41:31;;;;;;;0.00;0.00;;;-2.80;68.80;;;;;;5051692;28;20247;-69
2021/01/31 04:43:58;;;;;;;0.00;0.00;;;-2.80;63.30;;;;;;5052080;28;20214;-70
2021/01/31 04:46:38;;;;;;;0.00;0.00;;;-2.80;53.50;;;;;;5052344;28;20219;-69
2021/01/31 04:49:11;;;;;;;0.00;0.00;;;-2.80;43.70;;;;;;5052049;28;20202;-69
2021/01/31 04:51:57;;;;;;;0.00;0.00;;;-2.90;99.90;;;;;;5052094;28;20186;-69
2021/01/31 04:54:35;;;;;;;0.00;0.00;;;-2.90;99.90;;;;;;5051916;28;20204;-70
2021/01/31 04:57:12;;;;;;;0.00;0.00;;;-2.90;99.90;;;;;;5052071;28;20222;-70
2021/01/31 04:59:42;;;;;;;0.00;0.00;;;-2.80;99.90;;;;;;5052070;28;20650;-69
2021/01/31 05:02:13;;;;;;;0.00;0.00;;;-2.80;99.90;;;;;;5052536;28;20203;-69
2021/01/31 05:04:50;;;;;;;0.00;0.00;;;-2.90;99.90;;;;;;5052243;28;20236;-69
2021/01/31 05:07:17;;;;;;;0.00;0.00;;;-2.90;99.90;;;;;;5052017;28;20277;-69
2021/01/31 05:09:43;;;;;;;0.00;0.00;;;-2.90;99.90;;;;;;5051572;28;20682;-69
2021/01/31 05:12:19;;;;;;;0.00;0.00;;;-2.90;99.90;;;;;;5051814;28;20264;-69
2021/01/31 05:14:56;;;;;;;0.00;0.00;;;-2.90;99.90;;;;;;5051677;28;20222;-69
2021/01/31 05:17:22;;;;;;;0.00;0.00;;;-2.90;99.90;;;;;;5054507;28;20268;-69
2021/01/31 05:19:48;;;;;;;0.00;0.00;;;-3.00;99.90;;;;;;5055757;28;20207;-69
2021/01/31 05:22:17;;;;;;;0.00;0.00;;;-2.90;99.90;;;;;;5055904;28;20252;-69
2021/01/31 05:24:44;;;;;;;0.00;0.00;;;-2.90;99.90;;;;;;5055745;28;20219;-68
2021/01/31 05:27:12;;;;;;;0.00;0.00;;;-3.00;99.90;;;;;;5055581;28;20196;-69
2021/01/31 05:29:40;;;;;;;0.00;0.00;;;-3.00;74.70;;;;;;5055465;28;20207;-69
2021/01/31 05:32:10;;;;;;;0.00;0.00;;;-3.10;1.00;;;;;;5055313;28;20648;-69
2021/01/31 05:34:39;;;;;;;0.00;0.00;;;-3.20;25.00;;;;;;5055451;28;20657;-69
2021/01/31 05:37:07;;;;;;;0.00;0.00;;;-3.30;99.90;;;;;;5055545;28;20220;-69
2021/01/31 05:39:37;;;;;;;0.00;0.00;;;-3.20;99.90;;;;;;5055127;28;20212;-69
2021/01/31 05:42:06;;;;;;;0.00;0.00;;;-3.30;99.90;;;;;;5055452;28;20210;-69
2021/01/31 05:44:33;;;;;;;0.00;0.00;;;-3.30;99.90;;;;;;5055071;28;20211;-69
2021/01/31 05:47:14;;;;;;;0.00;0.00;;;-3.30;99.90;;;;;;5055704;28;20198;-69
2021/01/31 05:49:43;;;;;;;0.00;0.00;;;-3.30;99.90;;;;;;5055451;28;20201;-69
2021/01/31 05:52:27;;;;;;;0.00;0.00;;;-3.30;99.90;;;;;;5055282;28;20202;-70
2021/01/31 05:54:54;;;;;;;0.00;0.00;;;-3.30;99.90;;;;;;5054983;28;20228;-69
2021/01/31 05:57:23;;;;;;;0.00;0.00;;;-3.30;99.90;;;;;;5055387;28;20232;-69
2021/01/31 05:59:50;;;;;;;0.00;0.00;;;-3.30;99.90;;;;;;5054966;28;20626;-69
2021/01/31 06:02:23;;;;;;;0.00;0.00;;;-3.30;99.90;;;;;;5055409;28;20195;-69
2021/01/31 06:05:07;;;;;;;0.00;0.00;;;-3.30;99.90;;;;;;5055411;28;20759;-70
2021/01/31 06:07:33;;;;;;;0.00;0.00;;;-3.30;99.90;;;;;;5057924;28;20204;-70
2021/01/31 06:10:09;;;;;;;0.00;0.00;;;-3.30;99.90;;;;;;5055359;28;20448;-69
2021/01/31 06:12:35;;;;;;;0.00;0.00;;;-3.30;99.90;;;;;;5055258;28;20197;-69
2021/01/31 06:15:07;;;;;;;0.00;0.00;;;-3.40;99.90;;;;;;5055035;28;20227;-69
2021/01/31 06:17:35;;;;;;;0.00;0.00;;;-3.40;99.90;;;;;;5060889;28;20771;-70
2021/01/31 06:20:06;;;;;;;0.00;0.00;;;-3.40;99.90;;;;;;5060715;28;20203;-70
2021/01/31 06:22:41;;;;;;;0.00;0.00;;;-3.30;99.90;;;;;;5061248;28;20204;-70
2021/01/31 06:25:13;;;;;;;0.00;0.00;;;-3.40;99.90;;;;;;5057916;28;20224;-69
2021/01/31 06:27:39;;;;;;;0.00;0.00;;;-3.40;99.90;;;;;;5054290;28;20193;-69
2021/01/31 06:30:14;;;;;;;0.00;0.00;;;-3.40;99.90;;;;;;5054000;28;20201;-69
2021/01/31 06:32:41;;;;;;;0.00;0.00;;;-3.40;99.90;;;;;;5054848;28;20284;-69
2021/01/31 06:35:10;;;;;;;0.00;0.00;;;-3.40;99.90;;;;;;5054704;28;20219;-69
2021/01/31 06:37:48;;;;;;;0.00;0.00;;;-3.50;99.90;;;;;;5054158;28;20223;-69
2021/01/31 06:40:25;;;;;;;0.00;0.00;;;-3.50;99.90;;;;;;5054105;28;20194;-69
2021/01/31 06:42:58;;;;;;;0.00;0.00;;;-3.50;99.90;;;;;;5054070;28;20247;-69
2021/01/31 06:45:36;;;;;;;0.00;0.00;;;-3.50;99.90;;;;;;5054470;28;20738;-69
2021/01/31 06:48:30;;;;;;;0.00;0.00;;;-3.60;99.90;;;;;;5054119;28;20197;-69
2021/01/31 06:51:13;;;;;;;0.00;0.00;;;-3.60;99.90;;;;;;5054046;28;20200;-69
2021/01/31 06:54:08;;;;;;;0.00;0.00;;;-3.60;1.00;;;;;;5054784;28;20199;-69
2021/01/31 06:57:05;;;;;;;0.00;0.00;;;-3.60;1.00;;;;;;5048821;28;20233;-70
2021/01/31 06:59:40;;;;;;;0.00;0.00;;;-3.60;1.00;;;;;;5038547;28;20201;-70
2021/01/31 07:02:46;;;;;;;0.00;0.00;;;-3.80;99.90;;;;;;5054103;28;20198;-69
2021/01/31 07:05:36;;;;;;;0.00;0.00;;;-3.70;1.00;;;;;;5048520;28;20226;-69
2021/01/31 07:08:24;;;;;;;0.00;0.00;;;-3.80;99.90;;;;;;5053820;28;20202;-69
2021/01/31 07:11:19;;;;;;;0.00;0.00;;;-3.80;1.00;;;;;;5053566;28;20207;-70
2021/01/31 07:14:05;;;;;;;0.00;0.00;;;-3.90;1.00;;;;;;5051907;28;20672;-70
2021/01/31 07:16:39;;;;;;;0.00;0.00;;;-4.00;1.00;;;;;;5053856;28;20238;-69
2021/01/31 07:19:13;;;;;;;0.00;0.00;;;-4.00;1.00;;;;;;5053370;28;20219;-69
2021/01/31 07:21:45;;;;;;;0.00;0.00;;;-4.00;1.00;;;;;;5053188;28;20197;-70
2021/01/31 07:24:15;;;;;;;0.00;0.00;;;-4.00;1.00;;;;;;5053271;28;20196;-70
2021/01/31 07:26:47;;;;;;;0.00;0.00;;;-4.00;1.00;;;;;;5053270;28;20590;-70
2021/01/31 07:29:18;;;;;;;0.00;0.00;;;-3.90;14.00;;;;;;5053280;28;20218;-70
2021/01/31 07:31:46;;;;;;;0.00;0.00;;;-3.90;26.10;;;;;;5053247;28;20197;-69
2021/01/31 07:34:20;;;;;;;0.00;0.00;;;-3.90;2.00;;;;;;5053203;28;20249;-69
2021/01/31 07:37:07;;;;;;;0.00;0.00;;;-3.90;4.70;;;;;;5053209;28;20199;-70
2021/01/31 07:39:40;;;;;;;0.00;0.00;;;-3.80;80.40;;;;;;5052236;28;20195;-69
2021/01/31 07:42:06;;;;;;;0.00;0.00;;;-3.70;26.10;;;;;;5052914;28;20667;-70
2021/01/31 07:44:36;;;;;;;0.00;0.00;;;-3.70;11.00;;;;;;5053159;28;20571;-70
2021/01/31 07:47:03;;;;;;;0.00;0.00;;;-3.80;1.00;;;;;;5052900;28;20211;-70
2021/01/31 07:50:10;;;;;;;0.00;0.00;;;-3.80;1.00;;;;;;5052950;28;20207;-70
2021/01/31 07:52:52;;;;;;;0.00;0.00;;;-3.70;42.10;;;;;;5053450;28;20216;-70
2021/01/31 07:55:34;;;;;;;0.00;0.00;;;-3.70;58.80;;;;;;5052700;28;20858;-69
2021/01/31 07:58:04;;;;;;;0.00;0.00;;;-3.60;99.90;;;;;;5053025;28;20224;-70
2021/01/31 08:00:37;;;;;;;0.00;0.00;;;-3.60;99.90;;;;;;5052984;28;20209;-70
2021/01/31 08:03:18;;;;;;;0.00;0.00;;;-3.50;99.90;;;;;;5052845;28;20201;-70
2021/01/31 08:05:55;;;;;;;0.00;0.00;;;-3.50;99.90;;;;;;5052710;28;20213;-70
2021/01/31 08:08:51;;;;;;;0.00;0.00;;;-3.40;99.90;;;;;;5052520;28;20548;-69
2021/01/31 08:11:51;;;;;;;0.00;0.00;;;-3.30;99.90;;;;;;4990689;28;20241;-69
2021/01/31 08:14:51;;;;;;;0.00;0.00;;;-3.30;99.90;;;;;;5052310;28;20287;-69
2021/01/31 08:17:47;;;;;;;0.00;0.00;;;-3.10;99.90;;;;;;5052371;28;20220;-70
2021/01/31 08:20:47;;;;;;;0.00;0.00;;;-3.00;99.90;;;;;;5052403;28;20193;-69
2021/01/31 08:23:46;;;;;;;0.00;0.00;;;-2.90;99.90;;;;;;5041078;28;20200;-69
2021/01/31 08:26:42;;;;;;;0.00;0.00;;;-2.80;99.90;;;;;;5052414;28;20223;-69
2021/01/31 08:29:35;;;;;;;0.00;0.00;;;-2.70;99.90;;;;;;5052242;28;20262;-69
2021/01/31 08:32:15;;;;;;;0.00;0.00;;;-2.50;82.50;;;;;;5051962;28;20604;-69
2021/01/31 08:35:09;;;;;;;0.00;0.00;;;-2.40;1.00;;;;;;5041031;28;20220;-69
2021/01/31 08:37:35;;;;;;;0.00;0.00;;;-2.30;1.00;;;;;;5032276;28;20255;-69
2021/01/31 08:40:21;;;;;;;0.00;0.00;;;-2.20;99.90;;;;;;5031651;28;20557;-69
2021/01/31 08:42:52;;;;;;;0.00;0.00;;;-2.10;59.10;;;;;;5032159;28;20202;-69
2021/01/31 08:45:19;;;;;;;0.00;0.00;;;-2.00;1.00;;;;;;5032016;28;20221;-70
2021/01/31 08:47:45;;;;;;;0.00;0.00;;;-1.80;99.90;;;;;;5031747;28;20194;-70
2021/01/31 08:50:17;;;;;;;0.00;0.00;;;-1.70;99.90;;;;;;5034100;28;20197;-69
2021/01/31 08:52:48;;;;;;;0.00;0.00;;;-1.60;99.90;;;;;;5052299;28;20200;-69
2021/01/31 08:55:23;;;;;;;0.00;0.00;;;-1.50;99.90;;;;;;5052356;28;20324;-69
2021/01/31 08:58:00;;;;;;;0.00;0.00;;;-1.30;99.90;;;;;;5052920;28;20259;-69
2021/01/31 09:00:29;;;;;;;0.00;0.00;;;-1.30;59.80;;;;;;5052677;28;20638;-69
2021/01/31 09:02:56;;;;;;;0.00;0.00;;;-1.30;24.90;;;;;;5052921;28;20196;-68
2021/01/31 09:05:25;;;;;;;0.00;0.00;;;-1.20;19.80;;;;;;5051497;28;20230;-69
2021/01/31 09:07:59;;;;;;;0.00;0.00;;;-1.20;1.00;;;;;;5052879;28;20200;-69
2021/01/31 09:10:40;;;;;;;0.00;0.00;;;-1.10;1.00;;;;;;5051849;28;20208;-68
2021/01/31 09:13:10;;;;;;;0.00;0.00;;;-1.00;1.00;;;;;;5052708;28;20207;-68
2021/01/31 09:15:37;;;;;;;0.00;0.00;;;-1.00;1.00;;;;;;5052219;28;20227;-69
2021/01/31 09:18:08;;;;;;;0.00;0.00;;;-0.90;1.00;;;;;;5052034;28;20217;-69
2021/01/31 09:20:38;;;;;;;0.00;0.00;;;-0.80;1.00;;;;;;5050762;28;20205;-69
2021/01/31 09:23:15;;;;;;;0.00;0.00;;;-0.70;1.00;;;;;;5050742;28;20196;-68
2021/01/31 09:25:42;;;;;;;0.00;0.00;;;-0.60;1.00;;;;;;5051111;28;20221;-69
2021/01/31 09:28:16;;;;;;;0.00;0.00;;;-0.50;1.00;;;;;;5051110;28;20204;-70
2021/01/31 09:30:43;;;;;;;0.00;0.00;;;-0.50;1.00;;;;;;5050832;28;20277;-67
2021/01/31 09:33:13;;;;;;;0.00;0.00;;;-0.40;1.00;;;;;;5050733;28;20201;-68
2021/01/31 09:35:40;;;;;;;0.00;0.00;;;-0.40;1.00;;;;;;5030549;28;20701;-68
2021/01/31 09:38:14;;;;;;;0.00;0.00;;;-0.30;1.00;;;;;;5031303;28;20575;-68
2021/01/31 09:40:41;;;;;;;0.00;0.00;;;-0.30;1.00;;;;;;5032441;28;20588;-68
2021/01/31 09:43:11;;;;;;;0.00;0.00;;;-0.20;1.00;;;;;;5032408;28;20640;-70
2021/01/31 09:45:42;;;;;;;0.00;0.00;;;-0.10;1.00;;;;;;5031226;28;20226;-70
2021/01/31 09:48:10;;;;;;;0.00;0.00;;;0.10;1.00;;;;;;5030974;28;20194;-70
2021/01/31 09:50:37;;;;;;;0.00;0.00;;;0.20;1.00;;;;;;5030355;28;20684;-70
2021/01/31 09:53:04;;;;;;;0.00;0.00;;;0.30;1.00;;;;;;5031182;28;20204;-65
2021/01/31 09:55:41;;;;;;;0.00;0.00;;;0.40;1.00;;;;;;5032907;28;20233;-71
2021/01/31 09:58:19;;;;;;;0.00;0.00;;;0.50;1.00;;;;;;5031342;28;20701;-72
2021/01/31 10:00:47;;;;;;;0.00;0.00;;;0.50;1.00;;;;;;5030602;28;20198;-72
2021/01/31 10:03:25;;;;;;;0.00;0.00;;;0.70;1.00;;;;;;5033990;28;20201;-69
2021/01/31 10:06:05;;;;;;;0.00;0.00;;;0.80;1.00;;;;;;5034879;28;20239;-69
2021/01/31 10:08:32;;;;;;;0.00;0.00;;;0.80;1.00;;;;;;5034455;28;20197;-69
2021/01/31 10:11:38;;;;;;;0.00;0.00;;;0.90;1.00;;;;;;5034019;28;20566;-66
2021/01/31 10:14:05;;;;;;;0.00;0.00;;;0.90;1.00;;;;;;5033413;28;20198;-67
2021/01/31 10:16:34;;;;;;;0.00;0.00;;;1.00;1.00;;;;;;5034793;28;20229;-67
2021/01/31 10:19:10;;;;;;;0.00;0.00;;;1.10;1.00;;;;;;5034389;28;20222;-67
2021/01/31 10:21:38;;;;;;;0.00;0.00;;;1.10;99.90;;;;;;5033455;28;20251;-66
2021/01/31 10:24:17;;;;;;;0.00;0.00;;;1.20;99.90;;;;;;5034683;28;20206;-67
2021/01/31 10:26:43;;;;;;;0.00;0.00;;;1.20;99.90;;;;;;5034801;28;20221;-68
2021/01/31 10:29:20;;;;;;;0.00;0.00;;;1.30;99.90;;;;;;5034725;28;20224;-66
2021/01/31 10:31:48;;;;;;;0.00;0.00;;;1.30;99.90;;;;;;5033580;28;20202;-67
2021/01/31 10:34:37;;;;;;;0.00;0.00;;;1.50;1.00;;;;;;5034555;28;20207;-70
2021/01/31 10:37:15;;;;;;;0.00;0.00;;;1.60;99.90;;;;;;5034508;28;20239;-70
2021/01/31 10:39:43;;;;;;;0.00;0.00;;;1.70;99.90;;;;;;5033968;28;20223;-69
2021/01/31 10:42:10;;;;;;;0.00;0.00;;;1.70;99.90;;;;;;5034132;28;20198;-69
2021/01/31 10:44:36;;;;;;;0.00;0.00;;;1.80;99.90;;;;;;5033695;28;20201;-68
2021/01/31 10:47:03;;;;;;;0.00;0.00;;;1.90;99.90;;;;;;5034164;28;20249;-69
2021/01/31 10:49:30;;;;;;;0.00;0.00;;;1.90;99.90;;;;;;5034489;28;20667;-70
2021/01/31 10:51:56;;;;;;;0.00;0.00;;;1.80;99.90;;;;;;5034307;28;20209;-70
2021/01/31 10:54:23;;;;;;;0.00;0.00;;;1.90;99.90;;;;;;5033633;28;20217;-66
2021/01/31 10:56:50;;;;;;;0.00;0.00;;;1.80;99.90;;;;;;5033534;28;20201;-67
2021/01/31 10:59:16;;;;;;;0.00;0.00;;;1.80;99.90;;;;;;5034161;28;20218;-67
2021/01/31 11:01:44;;;;;;;0.00;0.00;;;1.80;99.90;;;;;;5032995;28;20216;-66
2021/01/31 11:04:11;;;;;;;0.00;0.00;;;1.90;99.90;;;;;;5033769;28;20203;-66
2021/01/31 11:06:37;;;;;;;0.00;0.00;;;1.90;99.90;;;;;;5033050;28;20218;-67
2021/01/31 11:09:04;;;;;;;0.00;0.00;;;1.80;99.90;;;;;;5033713;28;20198;-68
2021/01/31 11:11:31;;;;;;;0.00;0.00;;;1.80;99.90;;;;;;5033146;28;20335;-67
2021/01/31 11:13:57;;;;;;;0.00;0.00;;;1.80;99.90;;;;;;5033637;28;20662;-68
2021/01/31 11:16:23;;;;;;;0.00;0.00;;;1.80;99.90;;;;;;5034082;28;20226;-68
2021/01/31 11:18:49;;;;;;;0.00;0.00;;;1.70;99.90;;;;;;5033630;28;20227;-69
2021/01/31 11:21:20;;;;;;;0.00;0.00;;;1.70;99.90;;;;;;5033520;28;20195;-67
2021/01/31 11:24:08;;;;;;;0.00;0.00;;;1.80;99.90;;;;;;5033581;28;20609;-69
2021/01/31 11:26:43;;;;;;;0.00;0.00;;;1.80;99.90;;;;;;5031712;28;20276;-70
2021/01/31 11:29:23;;;;;;;0.00;0.00;;;1.80;99.90;;;;;;5033568;28;20203;-69
2021/01/31 11:31:54;;;;;;;0.00;0.00;;;1.80;99.90;;;;;;5032383;28;20218;-70
2021/01/31 11:34:24;;;;;;;0.00;0.00;;;1.80;99.90;;;;;;5032907;28;20209;-70
2021/01/31 11:36:51;;;;;;;0.00;0.00;;;2.00;99.90;;;;;;5032695;28;20208;-70
2021/01/31 11:39:20;;;;;;;0.00;0.00;;;2.10;99.90;;;;;;5033222;28;20411;-69
2021/01/31 11:41:54;;;;;;;0.00;0.00;;;2.20;99.90;;;;;;5032536;28;20198;-70
2021/01/31 11:44:24;;;;;;;0.00;0.00;;;2.20;99.90;;;;;;5031537;28;20244;-71
2021/01/31 11:46:58;;;;;;;0.00;0.00;;;2.30;99.90;;;;;;5031587;28;20257;-70
2021/01/31 11:49:30;;;;;;;0.00;0.00;;;2.40;99.90;;;;;;5033067;28;20197;-70
2021/01/31 11:51:57;;;;;;;0.00;0.00;;;2.50;99.90;;;;;;5031505;28;20228;-71
2021/01/31 11:54:25;;;;;;;0.00;0.00;;;2.60;99.90;;;;;;5032561;28;20207;-69
2021/01/31 11:57:08;;;;;;;0.00;0.00;;;2.70;99.90;;;;;;5033137;28;20238;-70
2021/01/31 11:59:35;;;;;;;0.00;0.00;;;2.80;99.90;;;;;;5032427;28;20280;-69
2021/01/31 12:02:01;;;;;;;0.00;0.00;;;2.80;99.90;;;;;;5032031;28;20193;-68
2021/01/31 12:04:28;;;;;;;0.00;0.00;;;2.90;99.90;;;;;;5032239;28;20194;-67
2021/01/31 12:06:54;;;;;;;0.00;0.00;;;2.90;99.90;;;;;;5032465;28;20196;-67
2021/01/31 12:09:21;;;;;;;0.00;0.00;;;3.00;99.90;;;;;;5032201;28;20199;-69
2021/01/31 12:11:50;;;;;;;0.00;0.00;;;3.10;99.90;;;;;;5031774;28;20203;-69
2021/01/31 12:14:20;;;;;;;0.00;0.00;;;3.40;99.90;;;;;;5045922;28;20211;-69
2021/01/31 12:17:24;;;;;;;0.00;0.00;;;3.70;99.90;;;;;;5051991;28;20281;-70
2021/01/31 12:19:50;;;;;;;0.00;0.00;;;3.70;99.90;;;;;;5049732;28;20207;-69
2021/01/31 12:22:17;;;;;;;0.00;0.00;;;3.80;99.90;;;;;;5051022;28;20263;-69
2021/01/31 12:24:46;;;;;;;0.00;0.00;;;3.90;99.90;;;;;;5053524;28;20270;-70
2021/01/31 12:27:13;;;;;;;0.00;0.00;;;3.90;99.90;;;;;;5056184;28;20207;-69
2021/01/31 12:33:04;;;;;;;0.00;0.00;;;3.80;99.90;;;;;;4978021;28;20839;-71
2021/01/31 12:35:31;;;;;;;0.00;0.00;;;4.10;99.90;;;;;;5002139;28;20219;-67
2021/01/31 12:37:58;;;;;;;0.00;0.00;;;4.30;99.90;;;;;;5051587;28;20220;-67
2021/01/31 12:40:28;;;;;;;0.00;0.00;;;4.10;99.90;;;;;;5051536;28;20554;-66
2021/01/31 12:42:54;;;;;;;0.00;0.00;;;3.90;99.90;;;;;;5051812;28;20202;-69
2021/01/31 12:45:22;;;;;;;0.00;0.00;;;3.90;99.90;;;;;;5052319;28;20258;-68
2021/01/31 12:47:49;;;;;;;0.00;0.00;;;3.80;99.90;;;;;;5052000;28;20203;-68
2021/01/31 12:50:17;;;;;;;0.00;0.00;;;3.60;99.90;;;;;;5051103;28;20230;-65
2021/01/31 12:52:43;;;;;;;0.00;0.00;;;3.50;99.90;;;;;;5051047;28;20217;-70
2021/01/31 12:55:12;;;;;;;0.00;0.00;;;3.50;99.90;;;;;;5051280;28;20605;-67
2021/01/31 12:57:39;;;;;;;0.00;0.00;;;3.60;99.90;;;;;;5051464;28;20619;-68
2021/01/31 13:00:07;;;;;;;0.00;0.00;;;3.60;99.90;;;;;;5051178;28;20203;-68
2021/01/31 13:02:35;;;;;;;0.00;0.00;;;3.50;99.90;;;;;;5051270;28;20291;-69
2021/01/31 13:05:02;;;;;;;0.00;0.00;;;3.40;99.90;;;;;;5061943;28;20201;-70
2021/01/31 13:07:28;;;;;;;0.00;0.00;;;3.30;99.90;;;;;;5074267;28;20202;-69
2021/01/31 13:09:58;;;;;;;0.00;0.00;;;3.30;99.90;;;;;;5059110;28;20201;-71
2021/01/31 13:12:25;;;;;;;0.00;0.00;;;3.20;99.90;;;;;;5053297;28;20211;-70
2021/01/31 13:14:52;;;;;;;0.00;0.00;;;3.40;99.90;;;;;;5064718;28;20224;-69
2021/01/31 13:17:18;;;;;;;0.00;0.00;;;3.40;99.90;;;;;;5066112;28;20194;-69
2021/01/31 13:19:45;;;;;;;0.00;0.00;;;3.40;99.90;;;;;;5055741;28;20225;-68
2021/01/31 13:22:11;;;;;;;0.00;0.00;;;3.40;99.90;;;;;;5050601;28;20629;-67